sensor_id;sensor_type;location;lat;lon;timestamp;temperature;humidity
75799;DHT22;70933;44.692;37.776;2024-02-14T00:00:15;25.96;26.66
75799;DHT22;70933;44.692;37.776;2024-02-14T00:01:19;25.95;26.54
75799;DHT22;70933;44.692;37.776;2024-02-14T00:02:22;25.95;26.50
75799;DHT22;70933;44.692;37.776;2024-02-14T00:03:24;25.95;26.52
75799;DHT22;70933;44.692;37.776;2024-02-14T00:04:25;25.96;26.38
75799;DHT22;70933;44.692;37.776;2024-02-14T00:05:27;25.96;26.50
75799;DHT22;70933;44.692;37.776;2024-02-14T00:06:35;25.97;26.58
75799;DHT22;70933;44.692;37.776;2024-02-14T00:07:38;25.96;26.49
75799;DHT22;70933;44.692;37.776;2024-02-14T00:08:41;25.95;26.55
75799;DHT22;70933;44.692;37.776;2024-02-14T00:09:43;25.97;26.52
75799;DHT22;70933;44.692;37.776;2024-02-14T00:10:44;25.97;26.59
75799;DHT22;70933;44.692;37.776;2024-02-14T00:11:46;25.97;26.57
75799;DHT22;70933;44.692;37.776;2024-02-14T00:12:48;25.96;26.49
75799;DHT22;70933;44.692;37.776;2024-02-14T00:13:50;25.98;26.54
75799;DHT22;70933;44.692;37.776;2024-02-14T00:14:52;25.97;26.46
75799;DHT22;70933;44.692;37.776;2024-02-14T00:15:54;25.98;26.52
75799;DHT22;70933;44.692;37.776;2024-02-14T00:16:57;25.97;26.46
75799;DHT22;70933;44.692;37.776;2024-02-14T00:18:01;25.97;26.52
75799;DHT22;70933;44.692;37.776;2024-02-14T00:19:03;25.96;26.41
75799;DHT22;70933;44.692;37.776;2024-02-14T00:20:05;25.96;26.47
75799;DHT22;70933;44.692;37.776;2024-02-14T00:21:20;25.96;26.41
75799;DHT22;70933;44.692;37.776;2024-02-14T00:22:23;25.97;26.46
75799;DHT22;70933;44.692;37.776;2024-02-14T00:23:25;25.97;26.38
75799;DHT22;70933;44.692;37.776;2024-02-14T00:24:27;25.97;26.43
75799;DHT22;70933;44.692;37.776;2024-02-14T00:25:30;25.97;26.30
75799;DHT22;70933;44.692;37.776;2024-02-14T00:26:35;25.97;26.33
75799;DHT22;70933;44.692;37.776;2024-02-14T00:27:38;25.98;26.27
75799;DHT22;70933;44.692;37.776;2024-02-14T00:28:40;25.98;26.22
75799;DHT22;70933;44.692;37.776;2024-02-14T00:29:41;25.97;26.16
75799;DHT22;70933;44.692;37.776;2024-02-14T00:30:46;25.98;26.17
75799;DHT22;70933;44.692;37.776;2024-02-14T00:32:08;25.96;26.09
75799;DHT22;70933;44.692;37.776;2024-02-14T00:33:21;25.96;25.98
75799;DHT22;70933;44.692;37.776;2024-02-14T00:34:23;25.97;26.02
75799;DHT22;70933;44.692;37.776;2024-02-14T00:35:25;25.96;25.97
75799;DHT22;70933;44.692;37.776;2024-02-14T00:36:27;25.96;26.01
75799;DHT22;70933;44.692;37.776;2024-02-14T00:37:29;25.97;25.68
75799;DHT22;70933;44.692;37.776;2024-02-14T00:38:31;25.96;25.90
75799;DHT22;70933;44.692;37.776;2024-02-14T00:39:33;25.96;25.81
75799;DHT22;70933;44.692;37.776;2024-02-14T00:40:34;25.95;25.93
75799;DHT22;70933;44.692;37.776;2024-02-14T00:41:36;25.94;25.88
75799;DHT22;70933;44.692;37.776;2024-02-14T00:42:38;25.95;25.88
75799;DHT22;70933;44.692;37.776;2024-02-14T00:43:40;25.95;25.97
75799;DHT22;70933;44.692;37.776;2024-02-14T00:44:41;25.96;26.06
75799;DHT22;70933;44.692;37.776;2024-02-14T00:45:43;25.96;26.15
75799;DHT22;70933;44.692;37.776;2024-02-14T00:46:45;25.95;25.85
75799;DHT22;70933;44.692;37.776;2024-02-14T00:47:47;25.96;25.87
75799;DHT22;70933;44.692;37.776;2024-02-14T00:48:49;25.96;25.84
75799;DHT22;70933;44.692;37.776;2024-02-14T00:49:51;25.95;25.85
75799;DHT22;70933;44.692;37.776;2024-02-14T00:50:53;25.97;25.94
75799;DHT22;70933;44.692;37.776;2024-02-14T00:51:55;25.96;25.89
75799;DHT22;70933;44.692;37.776;2024-02-14T00:52:57;25.94;25.99
75799;DHT22;70933;44.692;37.776;2024-02-14T00:53:59;25.95;25.82
75799;DHT22;70933;44.692;37.776;2024-02-14T00:55:01;25.96;25.78
75799;DHT22;70933;44.692;37.776;2024-02-14T00:56:09;25.95;25.89
75799;DHT22;70933;44.692;37.776;2024-02-14T00:57:10;25.95;25.89
75799;DHT22;70933;44.692;37.776;2024-02-14T00:58:13;25.96;25.78
75799;DHT22;70933;44.692;37.776;2024-02-14T00:59:15;25.95;25.85
75799;DHT22;70933;44.692;37.776;2024-02-14T01:00:18;25.96;25.86
75799;DHT22;70933;44.692;37.776;2024-02-14T01:01:20;25.97;25.78
75799;DHT22;70933;44.692;37.776;2024-02-14T01:02:23;25.97;25.81
75799;DHT22;70933;44.692;37.776;2024-02-14T01:03:24;25.96;25.81
75799;DHT22;70933;44.692;37.776;2024-02-14T01:04:26;25.97;25.65
75799;DHT22;70933;44.692;37.776;2024-02-14T01:05:28;25.97;25.85
75799;DHT22;70933;44.692;37.776;2024-02-14T01:06:30;25.96;25.70
75799;DHT22;70933;44.692;37.776;2024-02-14T01:07:32;25.96;25.64
75799;DHT22;70933;44.692;37.776;2024-02-14T01:08:34;25.97;25.83
75799;DHT22;70933;44.692;37.776;2024-02-14T01:09:37;25.96;25.65
75799;DHT22;70933;44.692;37.776;2024-02-14T01:10:39;25.96;25.81
75799;DHT22;70933;44.692;37.776;2024-02-14T01:11:41;25.97;25.61
75799;DHT22;70933;44.692;37.776;2024-02-14T01:12:43;25.97;25.68
75799;DHT22;70933;44.692;37.776;2024-02-14T01:13:45;25.95;25.52
75799;DHT22;70933;44.692;37.776;2024-02-14T01:14:47;25.97;25.56
75799;DHT22;70933;44.692;37.776;2024-02-14T01:15:49;25.96;25.43
75799;DHT22;70933;44.692;37.776;2024-02-14T01:16:51;25.96;25.53
75799;DHT22;70933;44.692;37.776;2024-02-14T01:17:55;25.98;25.49
75799;DHT22;70933;44.692;37.776;2024-02-14T01:18:57;25.97;25.45
75799;DHT22;70933;44.692;37.776;2024-02-14T01:19:59;25.96;25.39
75799;DHT22;70933;44.692;37.776;2024-02-14T01:21:00;25.97;25.43
75799;DHT22;70933;44.692;37.776;2024-02-14T01:22:03;25.96;25.22
75799;DHT22;70933;44.692;37.776;2024-02-14T01:23:07;25.96;25.23
75799;DHT22;70933;44.692;37.776;2024-02-14T01:24:18;25.96;25.23
75799;DHT22;70933;44.692;37.776;2024-02-14T01:25:20;25.96;25.30
75799;DHT22;70933;44.692;37.776;2024-02-14T01:26:23;25.96;25.17
75799;DHT22;70933;44.692;37.776;2024-02-14T01:27:24;25.96;25.33
75799;DHT22;70933;44.692;37.776;2024-02-14T01:28:26;25.94;25.07
75799;DHT22;70933;44.692;37.776;2024-02-14T01:29:28;25.96;25.08
75799;DHT22;70933;44.692;37.776;2024-02-14T01:30:30;25.96;25.23
75799;DHT22;70933;44.692;37.776;2024-02-14T01:31:33;25.94;25.08
75799;DHT22;70933;44.692;37.776;2024-02-14T01:32:36;25.94;24.91
75799;DHT22;70933;44.692;37.776;2024-02-14T01:33:38;25.95;25.10
75799;DHT22;70933;44.692;37.776;2024-02-14T01:34:41;25.96;25.26
75799;DHT22;70933;44.692;37.776;2024-02-14T01:35:44;25.94;25.05
75799;DHT22;70933;44.692;37.776;2024-02-14T01:36:47;25.94;25.09
75799;DHT22;70933;44.692;37.776;2024-02-14T01:37:49;25.95;25.05
75799;DHT22;70933;44.692;37.776;2024-02-14T01:38:51;25.94;24.96
75799;DHT22;70933;44.692;37.776;2024-02-14T01:39:52;25.95;24.87
75799;DHT22;70933;44.692;37.776;2024-02-14T01:40:54;25.94;25.01
75799;DHT22;70933;44.692;37.776;2024-02-14T01:41:56;25.95;24.82
75799;DHT22;70933;44.692;37.776;2024-02-14T01:42:58;25.95;24.85
75799;DHT22;70933;44.692;37.776;2024-02-14T01:43:59;25.94;24.86
75799;DHT22;70933;44.692;37.776;2024-02-14T01:45:02;25.94;25.01
75799;DHT22;70933;44.692;37.776;2024-02-14T01:46:08;25.94;24.87
75799;DHT22;70933;44.692;37.776;2024-02-14T01:47:21;25.94;25.00
75799;DHT22;70933;44.692;37.776;2024-02-14T01:48:23;25.94;24.86
75799;DHT22;70933;44.692;37.776;2024-02-14T01:49:25;25.93;24.93
75799;DHT22;70933;44.692;37.776;2024-02-14T01:50:29;25.94;24.83
75799;DHT22;70933;44.692;37.776;2024-02-14T01:51:34;25.94;24.99
75799;DHT22;70933;44.692;37.776;2024-02-14T01:52:40;25.93;24.69
75799;DHT22;70933;44.692;37.776;2024-02-14T01:53:43;25.94;24.91
75799;DHT22;70933;44.692;37.776;2024-02-14T01:54:45;25.93;24.93
75799;DHT22;70933;44.692;37.776;2024-02-14T01:55:47;25.93;24.79
75799;DHT22;70933;44.692;37.776;2024-02-14T01:56:49;25.93;24.64
75799;DHT22;70933;44.692;37.776;2024-02-14T01:57:51;25.92;24.80
75799;DHT22;70933;44.692;37.776;2024-02-14T01:58:53;25.93;24.64
75799;DHT22;70933;44.692;37.776;2024-02-14T01:59:56;25.94;24.83
75799;DHT22;70933;44.692;37.776;2024-02-14T02:00:59;25.93;24.49
75799;DHT22;70933;44.692;37.776;2024-02-14T02:02:01;25.94;24.65
75799;DHT22;70933;44.692;37.776;2024-02-14T02:03:04;25.94;24.55
75799;DHT22;70933;44.692;37.776;2024-02-14T02:04:06;25.93;24.62
75799;DHT22;70933;44.692;37.776;2024-02-14T02:05:08;25.93;24.62
75799;DHT22;70933;44.692;37.776;2024-02-14T02:06:10;25.93;24.59
75799;DHT22;70933;44.692;37.776;2024-02-14T02:07:12;25.94;24.77
75799;DHT22;70933;44.692;37.776;2024-02-14T02:08:14;25.94;24.49
75799;DHT22;70933;44.692;37.776;2024-02-14T02:09:16;25.94;24.63
75799;DHT22;70933;44.692;37.776;2024-02-14T02:10:18;25.91;24.51
75799;DHT22;70933;44.692;37.776;2024-02-14T02:11:46;25.93;24.45
75799;DHT22;70933;44.692;37.776;2024-02-14T02:13:09;25.93;24.39
75799;DHT22;70933;44.692;37.776;2024-02-14T02:14:31;25.91;24.59
75799;DHT22;70933;44.692;37.776;2024-02-14T02:15:54;25.93;24.44
75799;DHT22;70933;44.692;37.776;2024-02-14T02:17:16;25.92;24.52
75799;DHT22;70933;44.692;37.776;2024-02-14T02:18:39;25.91;24.57
75799;DHT22;70933;44.692;37.776;2024-02-14T02:20:01;25.91;24.71
75799;DHT22;70933;44.692;37.776;2024-02-14T02:21:09;25.90;24.69
75799;DHT22;70933;44.692;37.776;2024-02-14T02:22:18;25.90;24.75
75799;DHT22;70933;44.692;37.776;2024-02-14T02:23:36;25.92;24.61
75799;DHT22;70933;44.692;37.776;2024-02-14T02:24:38;25.91;24.59
75799;DHT22;70933;44.692;37.776;2024-02-14T02:25:41;25.91;24.65
75799;DHT22;70933;44.692;37.776;2024-02-14T02:27:03;25.91;24.56
75799;DHT22;70933;44.692;37.776;2024-02-14T02:28:25;25.91;24.59
75799;DHT22;70933;44.692;37.776;2024-02-14T02:29:30;25.91;24.66
75799;DHT22;70933;44.692;37.776;2024-02-14T02:30:34;25.91;24.79
75799;DHT22;70933;44.692;37.776;2024-02-14T02:31:37;25.91;24.76
75799;DHT22;70933;44.692;37.776;2024-02-14T02:32:39;25.91;24.74
75799;DHT22;70933;44.692;37.776;2024-02-14T02:33:42;25.90;24.75
75799;DHT22;70933;44.692;37.776;2024-02-14T02:34:44;25.91;24.57
75799;DHT22;70933;44.692;37.776;2024-02-14T02:35:47;25.92;24.88
75799;DHT22;70933;44.692;37.776;2024-02-14T02:37:11;25.91;24.73
75799;DHT22;70933;44.692;37.776;2024-02-14T02:38:45;25.93;24.76
75799;DHT22;70933;44.692;37.776;2024-02-14T02:40:07;25.91;24.79
75799;DHT22;70933;44.692;37.776;2024-02-14T02:41:34;25.91;24.75
75799;DHT22;70933;44.692;37.776;2024-02-14T02:42:55;25.91;24.67
75799;DHT22;70933;44.692;37.776;2024-02-14T02:44:17;25.91;24.73
75799;DHT22;70933;44.692;37.776;2024-02-14T02:45:38;25.91;24.89
75799;DHT22;70933;44.692;37.776;2024-02-14T02:47:01;25.91;24.72
75799;DHT22;70933;44.692;37.776;2024-02-14T02:48:22;25.91;24.79
75799;DHT22;70933;44.692;37.776;2024-02-14T02:49:32;25.90;24.83
75799;DHT22;70933;44.692;37.776;2024-02-14T02:50:46;25.91;24.82
75799;DHT22;70933;44.692;37.776;2024-02-14T02:52:12;25.91;24.88
75799;DHT22;70933;44.692;37.776;2024-02-14T02:53:24;25.90;24.98
75799;DHT22;70933;44.692;37.776;2024-02-14T02:54:45;25.91;24.88
75799;DHT22;70933;44.692;37.776;2024-02-14T02:56:08;25.91;24.76
75799;DHT22;70933;44.692;37.776;2024-02-14T02:57:10;25.91;24.75
75799;DHT22;70933;44.692;37.776;2024-02-14T02:58:12;25.91;24.84
75799;DHT22;70933;44.692;37.776;2024-02-14T02:59:16;25.90;25.08
75799;DHT22;70933;44.692;37.776;2024-02-14T03:00:18;25.92;24.89
75799;DHT22;70933;44.692;37.776;2024-02-14T03:01:39;25.91;24.85
75799;DHT22;70933;44.692;37.776;2024-02-14T03:03:01;25.92;25.03
75799;DHT22;70933;44.692;37.776;2024-02-14T03:04:29;25.92;24.94
75799;DHT22;70933;44.692;37.776;2024-02-14T03:05:50;25.91;24.65
75799;DHT22;70933;44.692;37.776;2024-02-14T03:07:11;25.91;24.76
75799;DHT22;70933;44.692;37.776;2024-02-14T03:08:33;25.91;24.65
75799;DHT22;70933;44.692;37.776;2024-02-14T03:09:55;25.90;24.67
75799;DHT22;70933;44.692;37.776;2024-02-14T03:11:17;25.90;24.59
75799;DHT22;70933;44.692;37.776;2024-02-14T03:12:39;25.90;24.64
75799;DHT22;70933;44.692;37.776;2024-02-14T03:14:01;25.91;24.64
75799;DHT22;70933;44.692;37.776;2024-02-14T03:15:23;25.90;24.81
75799;DHT22;70933;44.692;37.776;2024-02-14T03:16:27;25.90;24.66
75799;DHT22;70933;44.692;37.776;2024-02-14T03:17:29;25.89;24.78
75799;DHT22;70933;44.692;37.776;2024-02-14T03:18:31;25.90;24.46
75799;DHT22;70933;44.692;37.776;2024-02-14T03:19:33;25.89;24.51
75799;DHT22;70933;44.692;37.776;2024-02-14T03:20:39;25.90;24.72
75799;DHT22;70933;44.692;37.776;2024-02-14T03:21:41;25.91;24.39
75799;DHT22;70933;44.692;37.776;2024-02-14T03:22:44;25.91;24.36
75799;DHT22;70933;44.692;37.776;2024-02-14T03:23:47;25.90;24.51
75799;DHT22;70933;44.692;37.776;2024-02-14T03:24:49;25.91;24.51
75799;DHT22;70933;44.692;37.776;2024-02-14T03:25:50;25.90;24.43
75799;DHT22;70933;44.692;37.776;2024-02-14T03:26:53;25.91;24.46
75799;DHT22;70933;44.692;37.776;2024-02-14T03:27:55;25.90;24.53
75799;DHT22;70933;44.692;37.776;2024-02-14T03:28:59;25.91;24.49
75799;DHT22;70933;44.692;37.776;2024-02-14T03:30:01;25.91;24.44
75799;DHT22;70933;44.692;37.776;2024-02-14T03:31:07;25.91;24.43
75799;DHT22;70933;44.692;37.776;2024-02-14T03:32:09;25.91;24.53
75799;DHT22;70933;44.692;37.776;2024-02-14T03:33:11;25.91;24.58
75799;DHT22;70933;44.692;37.776;2024-02-14T03:34:13;25.92;24.59
75799;DHT22;70933;44.692;37.776;2024-02-14T03:35:16;25.93;24.54
75799;DHT22;70933;44.692;37.776;2024-02-14T03:36:19;25.92;24.55
75799;DHT22;70933;44.692;37.776;2024-02-14T03:37:21;25.93;24.47
75799;DHT22;70933;44.692;37.776;2024-02-14T03:38:27;25.93;24.44
75799;DHT22;70933;44.692;37.776;2024-02-14T03:39:29;25.92;24.44
75799;DHT22;70933;44.692;37.776;2024-02-14T03:40:32;25.92;24.35
75799;DHT22;70933;44.692;37.776;2024-02-14T03:41:34;25.93;24.45
75799;DHT22;70933;44.692;37.776;2024-02-14T03:42:35;25.92;24.46
75799;DHT22;70933;44.692;37.776;2024-02-14T03:43:38;25.93;24.54
75799;DHT22;70933;44.692;37.776;2024-02-14T03:44:39;25.94;24.49
75799;DHT22;70933;44.692;37.776;2024-02-14T03:45:42;25.91;24.46
75799;DHT22;70933;44.692;37.776;2024-02-14T03:46:44;25.94;24.42
75799;DHT22;70933;44.692;37.776;2024-02-14T03:47:45;25.94;24.41
75799;DHT22;70933;44.692;37.776;2024-02-14T03:48:47;25.94;24.46
75799;DHT22;70933;44.692;37.776;2024-02-14T03:49:49;25.93;24.24
75799;DHT22;70933;44.692;37.776;2024-02-14T03:50:51;25.94;24.52
75799;DHT22;70933;44.692;37.776;2024-02-14T03:51:53;25.94;24.51
75799;DHT22;70933;44.692;37.776;2024-02-14T03:52:56;25.94;24.37
75799;DHT22;70933;44.692;37.776;2024-02-14T03:53:57;25.94;24.49
75799;DHT22;70933;44.692;37.776;2024-02-14T03:55:00;25.95;24.52
75799;DHT22;70933;44.692;37.776;2024-02-14T03:56:03;25.94;24.56
75799;DHT22;70933;44.692;37.776;2024-02-14T03:57:05;25.94;24.49
75799;DHT22;70933;44.692;37.776;2024-02-14T03:58:09;25.94;24.52
75799;DHT22;70933;44.692;37.776;2024-02-14T03:59:11;25.94;24.35
75799;DHT22;70933;44.692;37.776;2024-02-14T04:00:13;25.95;24.67
75799;DHT22;70933;44.692;37.776;2024-02-14T04:01:15;25.95;24.40
75799;DHT22;70933;44.692;37.776;2024-02-14T04:02:17;25.95;24.56
75799;DHT22;70933;44.692;37.776;2024-02-14T04:03:20;25.95;24.57
75799;DHT22;70933;44.692;37.776;2024-02-14T04:04:22;25.95;24.51
75799;DHT22;70933;44.692;37.776;2024-02-14T04:05:25;25.97;24.45
75799;DHT22;70933;44.692;37.776;2024-02-14T04:06:29;25.95;24.47
75799;DHT22;70933;44.692;37.776;2024-02-14T04:07:33;25.96;24.59
75799;DHT22;70933;44.692;37.776;2024-02-14T04:08:36;25.95;24.64
75799;DHT22;70933;44.692;37.776;2024-02-14T04:09:38;25.96;24.43
75799;DHT22;70933;44.692;37.776;2024-02-14T04:10:40;25.95;24.62
75799;DHT22;70933;44.692;37.776;2024-02-14T04:11:42;25.96;24.63
75799;DHT22;70933;44.692;37.776;2024-02-14T04:12:44;25.97;24.65
75799;DHT22;70933;44.692;37.776;2024-02-14T04:13:45;25.97;24.65
75799;DHT22;70933;44.692;37.776;2024-02-14T04:14:48;25.96;24.58
75799;DHT22;70933;44.692;37.776;2024-02-14T04:15:49;25.96;24.53
75799;DHT22;70933;44.692;37.776;2024-02-14T04:17:06;25.96;24.62
75799;DHT22;70933;44.692;37.776;2024-02-14T04:18:09;25.96;24.57
75799;DHT22;70933;44.692;37.776;2024-02-14T04:19:11;25.95;24.65
75799;DHT22;70933;44.692;37.776;2024-02-14T04:20:14;25.96;24.54
75799;DHT22;70933;44.692;37.776;2024-02-14T04:21:16;25.95;24.71
75799;DHT22;70933;44.692;37.776;2024-02-14T04:22:18;25.97;24.59
75799;DHT22;70933;44.692;37.776;2024-02-14T04:23:20;25.97;24.50
75799;DHT22;70933;44.692;37.776;2024-02-14T04:24:23;25.96;24.65
75799;DHT22;70933;44.692;37.776;2024-02-14T04:25:25;25.98;24.69
75799;DHT22;70933;44.692;37.776;2024-02-14T04:26:27;25.97;24.79
75799;DHT22;70933;44.692;37.776;2024-02-14T04:27:29;25.97;24.65
75799;DHT22;70933;44.692;37.776;2024-02-14T04:28:31;25.97;24.57
75799;DHT22;70933;44.692;37.776;2024-02-14T04:29:33;25.98;24.65
75799;DHT22;70933;44.692;37.776;2024-02-14T04:30:35;25.97;24.64
75799;DHT22;70933;44.692;37.776;2024-02-14T04:31:57;25.97;24.55
75799;DHT22;70933;44.692;37.776;2024-02-14T04:32:59;25.98;24.62
75799;DHT22;70933;44.692;37.776;2024-02-14T04:34:01;25.97;24.69
75799;DHT22;70933;44.692;37.776;2024-02-14T04:35:03;25.97;24.63
75799;DHT22;70933;44.692;37.776;2024-02-14T04:36:08;25.97;24.64
75799;DHT22;70933;44.692;37.776;2024-02-14T04:37:13;25.97;24.65
75799;DHT22;70933;44.692;37.776;2024-02-14T04:38:17;25.97;24.75
75799;DHT22;70933;44.692;37.776;2024-02-14T04:39:22;25.98;24.68
75799;DHT22;70933;44.692;37.776;2024-02-14T04:40:24;25.97;24.63
75799;DHT22;70933;44.692;37.776;2024-02-14T04:41:25;25.97;24.76
75799;DHT22;70933;44.692;37.776;2024-02-14T04:42:28;25.97;24.70
75799;DHT22;70933;44.692;37.776;2024-02-14T04:43:29;25.97;24.80
75799;DHT22;70933;44.692;37.776;2024-02-14T04:44:32;25.97;24.69
75799;DHT22;70933;44.692;37.776;2024-02-14T04:45:34;25.96;24.72
75799;DHT22;70933;44.692;37.776;2024-02-14T04:46:45;25.98;24.68
75799;DHT22;70933;44.692;37.776;2024-02-14T04:47:47;25.97;24.67
75799;DHT22;70933;44.692;37.776;2024-02-14T04:48:49;25.97;24.86
75799;DHT22;70933;44.692;37.776;2024-02-14T04:49:50;25.98;24.77
75799;DHT22;70933;44.692;37.776;2024-02-14T04:50:53;25.98;24.82
75799;DHT22;70933;44.692;37.776;2024-02-14T04:51:55;25.98;24.90
75799;DHT22;70933;44.692;37.776;2024-02-14T04:52:57;25.98;24.86
75799;DHT22;70933;44.692;37.776;2024-02-14T04:53:59;26.01;24.84
75799;DHT22;70933;44.692;37.776;2024-02-14T04:55:01;25.98;24.82
75799;DHT22;70933;44.692;37.776;2024-02-14T04:56:03;25.98;24.84
75799;DHT22;70933;44.692;37.776;2024-02-14T04:57:05;26.01;24.90
75799;DHT22;70933;44.692;37.776;2024-02-14T04:58:07;25.98;24.94
75799;DHT22;70933;44.692;37.776;2024-02-14T04:59:08;25.98;24.86
75799;DHT22;70933;44.692;37.776;2024-02-14T05:00:11;25.99;25.01
75799;DHT22;70933;44.692;37.776;2024-02-14T05:01:13;25.98;25.03
75799;DHT22;70933;44.692;37.776;2024-02-14T05:02:14;25.98;24.88
75799;DHT22;70933;44.692;37.776;2024-02-14T05:03:16;25.99;24.94
75799;DHT22;70933;44.692;37.776;2024-02-14T05:04:18;25.98;24.98
75799;DHT22;70933;44.692;37.776;2024-02-14T05:05:21;25.98;25.78
75799;DHT22;70933;44.692;37.776;2024-02-14T05:06:29;25.99;26.16
75799;DHT22;70933;44.692;37.776;2024-02-14T05:07:31;25.98;25.78
75799;DHT22;70933;44.692;37.776;2024-02-14T05:08:33;25.97;25.88
75799;DHT22;70933;44.692;37.776;2024-02-14T05:09:35;25.96;25.87
75799;DHT22;70933;44.692;37.776;2024-02-14T05:10:36;25.96;25.88
75799;DHT22;70933;44.692;37.776;2024-02-14T05:11:39;25.96;26.33
75799;DHT22;70933;44.692;37.776;2024-02-14T05:12:41;25.96;26.44
75799;DHT22;70933;44.692;37.776;2024-02-14T05:13:43;25.96;26.58
75799;DHT22;70933;44.692;37.776;2024-02-14T05:14:45;25.96;26.65
75799;DHT22;70933;44.692;37.776;2024-02-14T05:15:47;25.95;26.60
75799;DHT22;70933;44.692;37.776;2024-02-14T05:16:49;25.96;26.68
75799;DHT22;70933;44.692;37.776;2024-02-14T05:17:51;25.96;26.81
75799;DHT22;70933;44.692;37.776;2024-02-14T05:18:53;25.96;26.81
75799;DHT22;70933;44.692;37.776;2024-02-14T05:19:55;25.96;26.88
75799;DHT22;70933;44.692;37.776;2024-02-14T05:20:58;25.96;26.77
75799;DHT22;70933;44.692;37.776;2024-02-14T05:22:00;25.96;26.91
75799;DHT22;70933;44.692;37.776;2024-02-14T05:23:02;25.96;26.87
75799;DHT22;70933;44.692;37.776;2024-02-14T05:24:07;25.95;26.88
75799;DHT22;70933;44.692;37.776;2024-02-14T05:25:09;25.96;26.96
75799;DHT22;70933;44.692;37.776;2024-02-14T05:26:28;25.97;26.96
75799;DHT22;70933;44.692;37.776;2024-02-14T05:27:30;25.96;26.92
75799;DHT22;70933;44.692;37.776;2024-02-14T05:28:32;25.96;26.87
75799;DHT22;70933;44.692;37.776;2024-02-14T05:29:34;25.96;26.30
75799;DHT22;70933;44.692;37.776;2024-02-14T05:30:36;25.96;25.99
75799;DHT22;70933;44.692;37.776;2024-02-14T05:31:49;25.95;26.04
75799;DHT22;70933;44.692;37.776;2024-02-14T05:32:54;25.94;25.42
75799;DHT22;70933;44.692;37.776;2024-02-14T05:33:56;25.93;25.89
75799;DHT22;70933;44.692;37.776;2024-02-14T05:34:58;25.95;26.78
75799;DHT22;70933;44.692;37.776;2024-02-14T05:36:00;25.95;26.98
75799;DHT22;70933;44.692;37.776;2024-02-14T05:37:02;25.95;27.19
75799;DHT22;70933;44.692;37.776;2024-02-14T05:38:04;25.96;27.12
75799;DHT22;70933;44.692;37.776;2024-02-14T05:39:09;25.98;27.06
75799;DHT22;70933;44.692;37.776;2024-02-14T05:40:11;25.98;26.94
75799;DHT22;70933;44.692;37.776;2024-02-14T05:41:13;25.98;26.91
75799;DHT22;70933;44.692;37.776;2024-02-14T05:42:15;25.98;26.83
75799;DHT22;70933;44.692;37.776;2024-02-14T05:43:20;25.97;26.73
75799;DHT22;70933;44.692;37.776;2024-02-14T05:44:22;26.01;26.72
75799;DHT22;70933;44.692;37.776;2024-02-14T05:45:24;25.97;26.71
75799;DHT22;70933;44.692;37.776;2024-02-14T05:46:26;25.98;26.49
75799;DHT22;70933;44.692;37.776;2024-02-14T05:47:29;25.98;26.41
75799;DHT22;70933;44.692;37.776;2024-02-14T05:48:31;25.98;26.45
75799;DHT22;70933;44.692;37.776;2024-02-14T05:49:33;25.98;26.72
75799;DHT22;70933;44.692;37.776;2024-02-14T05:50:35;25.99;26.57
75799;DHT22;70933;44.692;37.776;2024-02-14T05:51:37;25.99;26.39
75799;DHT22;70933;44.692;37.776;2024-02-14T05:52:39;26.01;26.49
75799;DHT22;70933;44.692;37.776;2024-02-14T05:53:41;26.01;26.66
75799;DHT22;70933;44.692;37.776;2024-02-14T05:54:48;26.01;26.78
75799;DHT22;70933;44.692;37.776;2024-02-14T05:55:50;26.01;26.94
75799;DHT22;70933;44.692;37.776;2024-02-14T05:56:52;26.01;26.94
75799;DHT22;70933;44.692;37.776;2024-02-14T05:57:54;25.99;26.75
75799;DHT22;70933;44.692;37.776;2024-02-14T05:58:56;25.99;26.64
75799;DHT22;70933;44.692;37.776;2024-02-14T05:59:59;26.01;26.60
75799;DHT22;70933;44.692;37.776;2024-02-14T06:01:00;25.98;26.60
75799;DHT22;70933;44.692;37.776;2024-02-14T06:02:03;25.99;26.49
75799;DHT22;70933;44.692;37.776;2024-02-14T06:03:07;26.01;26.52
75799;DHT22;70933;44.692;37.776;2024-02-14T06:04:09;26.02;26.59
75799;DHT22;70933;44.692;37.776;2024-02-14T06:05:11;26.02;26.51
75799;DHT22;70933;44.692;37.776;2024-02-14T06:06:12;26.03;26.44
75799;DHT22;70933;44.692;37.776;2024-02-14T06:07:14;26.04;26.66
75799;DHT22;70933;44.692;37.776;2024-02-14T06:08:16;26.05;26.73
75799;DHT22;70933;44.692;37.776;2024-02-14T06:09:18;26.05;26.92
75799;DHT22;70933;44.692;37.776;2024-02-14T06:10:20;26.06;26.94
75799;DHT22;70933;44.692;37.776;2024-02-14T06:11:22;26.07;26.96
75799;DHT22;70933;44.692;37.776;2024-02-14T06:12:24;26.08;27.00
75799;DHT22;70933;44.692;37.776;2024-02-14T06:13:26;26.09;26.86
75799;DHT22;70933;44.692;37.776;2024-02-14T06:14:28;26.08;26.92
75799;DHT22;70933;44.692;37.776;2024-02-14T06:15:32;26.09;26.95
75799;DHT22;70933;44.692;37.776;2024-02-14T06:16:34;26.10;27.07
75799;DHT22;70933;44.692;37.776;2024-02-14T06:17:36;26.09;27.07
75799;DHT22;70933;44.692;37.776;2024-02-14T06:18:38;26.10;27.10
75799;DHT22;70933;44.692;37.776;2024-02-14T06:19:41;26.11;27.30
75799;DHT22;70933;44.692;37.776;2024-02-14T06:20:43;26.11;27.09
75799;DHT22;70933;44.692;37.776;2024-02-14T06:21:44;26.12;27.11
75799;DHT22;70933;44.692;37.776;2024-02-14T06:22:46;26.12;27.10
75799;DHT22;70933;44.692;37.776;2024-02-14T06:23:48;26.15;27.04
75799;DHT22;70933;44.692;37.776;2024-02-14T06:24:50;26.15;27.23
75799;DHT22;70933;44.692;37.776;2024-02-14T06:25:52;26.15;27.20
75799;DHT22;70933;44.692;37.776;2024-02-14T06:26:55;26.15;27.32
75799;DHT22;70933;44.692;37.776;2024-02-14T06:27:56;26.16;27.52
75799;DHT22;70933;44.692;37.776;2024-02-14T06:28:58;26.16;27.36
75799;DHT22;70933;44.692;37.776;2024-02-14T06:30:00;26.16;27.33
75799;DHT22;70933;44.692;37.776;2024-02-14T06:31:02;26.16;27.13
75799;DHT22;70933;44.692;37.776;2024-02-14T06:32:04;26.15;26.28
75799;DHT22;70933;44.692;37.776;2024-02-14T06:33:06;26.12;26.98
75799;DHT22;70933;44.692;37.776;2024-02-14T06:34:08;26.12;27.07
75799;DHT22;70933;44.692;37.776;2024-02-14T06:35:10;26.10;27.16
75799;DHT22;70933;44.692;37.776;2024-02-14T06:36:12;26.10;27.13
75799;DHT22;70933;44.692;37.776;2024-02-14T06:37:13;26.09;27.31
75799;DHT22;70933;44.692;37.776;2024-02-14T06:38:15;26.08;27.40
75799;DHT22;70933;44.692;37.776;2024-02-14T06:39:18;26.09;27.25
75799;DHT22;70933;44.692;37.776;2024-02-14T06:40:22;26.11;27.23
75799;DHT22;70933;44.692;37.776;2024-02-14T06:41:24;26.11;27.20